createdAt,value
2023-03-01T00:01:49.759Z,51.10
2023-03-01T00:04:18.107Z,45.40
2023-03-01T00:06:48.587Z,51.00
2023-03-01T00:09:17.169Z,48.20
2023-03-01T00:11:46.366Z,49.40
2023-03-01T00:14:17.448Z,46.50
2023-03-01T00:16:47.693Z,45.90
2023-03-01T00:19:18.285Z,50.00
2023-03-01T00:21:46.877Z,44.10
2023-03-01T00:24:15.645Z,50.20
2023-03-01T00:26:43.879Z,45.00
2023-03-01T00:29:12.016Z,42.20
2023-03-01T00:31:39.964Z,37.50
2023-03-01T00:34:10.515Z,43.60
2023-03-01T00:36:39.077Z,41.20
2023-03-01T00:39:17.093Z,36.80
2023-03-01T00:41:45.805Z,33.90
2023-03-01T00:44:16.524Z,30.30
2023-03-01T00:46:44.884Z,29.60
2023-03-01T00:49:13.379Z,30.60
2023-03-01T00:51:42.793Z,30.70
2023-03-01T00:54:11.193Z,29.90
2023-03-01T00:56:41.372Z,33.00
2023-03-01T00:59:09.624Z,34.60
2023-03-01T01:09:19.619Z,35.20
2023-03-01T01:11:50.230Z,33.30
2023-03-01T01:14:19.592Z,40.50
2023-03-01T01:16:48.132Z,35.30
2023-03-01T01:19:17.581Z,38.40
2023-03-01T01:21:46.009Z,36.00
2023-03-01T01:24:14.868Z,34.50
2023-03-01T01:26:44.039Z,38.00
2023-03-01T01:29:13.165Z,40.20
2023-03-01T01:31:42.538Z,33.20
2023-03-01T01:34:17.525Z,40.60
2023-03-01T01:36:48.496Z,34.30
2023-03-01T01:39:16.811Z,40.40
2023-03-01T01:41:45.177Z,42.00
2023-03-01T01:44:24.606Z,38.20
2023-03-01T01:47:06.792Z,38.60
2023-03-01T01:49:39.597Z,42.70
2023-03-01T01:52:12.975Z,36.60
2023-03-01T01:54:59.295Z,43.70
2023-03-01T01:57:36.496Z,43.70
2023-03-01T02:00:20.000Z,42.40
2023-03-01T02:02:53.112Z,36.70
2023-03-01T02:05:27.549Z,41.80
2023-03-01T02:07:57.409Z,44.80
2023-03-01T02:10:25.569Z,38.80
2023-03-01T02:12:54.741Z,37.40
2023-03-01T02:15:24.628Z,36.60
2023-03-01T02:17:54.644Z,41.00
2023-03-01T02:20:28.784Z,44.10
2023-03-01T02:22:56.828Z,46.20
2023-03-01T02:25:53.316Z,43.80
2023-03-01T02:28:27.601Z,45.40
2023-03-01T02:31:14.161Z,48.10
2023-03-01T02:33:43.312Z,45.90
2023-03-01T02:36:20.370Z,51.00
2023-03-01T02:38:49.697Z,52.10
2023-03-01T02:41:19.072Z,39.30
2023-03-01T02:43:47.529Z,42.20
2023-03-01T02:46:18.980Z,42.10
2023-03-01T02:48:49.140Z,38.80
2023-03-01T02:54:23.381Z,38.20
2023-03-01T02:56:51.765Z,36.30
2023-03-01T02:59:22.683Z,40.70
2023-03-01T03:01:51.271Z,38.10
2023-03-01T03:04:19.676Z,40.00
2023-03-01T03:06:50.922Z,37.50
2023-03-01T03:09:19.476Z,42.20
2023-03-01T03:11:49.129Z,37.30
2023-03-01T03:14:17.914Z,31.70
2023-03-01T03:16:50.362Z,35.10
2023-03-01T03:19:19.960Z,36.30
2023-03-01T03:21:48.266Z,41.20
2023-03-01T03:24:19.477Z,40.30
2023-03-01T03:26:48.091Z,39.80
2023-03-01T03:29:16.269Z,38.00
2023-03-01T03:31:44.389Z,37.50
2023-03-01T03:34:19.171Z,36.10
2023-03-01T03:36:47.626Z,38.90
2023-03-01T03:39:15.641Z,37.50
2023-03-01T03:41:44.302Z,38.60
2023-03-01T03:44:13.459Z,34.00
2023-03-01T03:46:41.976Z,38.90
2023-03-01T03:49:10.340Z,36.80
2023-03-01T03:51:38.791Z,36.70
2023-03-01T03:54:07.516Z,37.20
2023-03-01T03:56:36.098Z,40.30
2023-03-01T03:59:04.191Z,44.30
2023-03-01T04:01:32.476Z,35.80
2023-03-01T04:04:05.375Z,40.30
2023-03-01T04:06:33.926Z,34.10
2023-03-01T04:09:03.630Z,35.30
2023-03-01T04:11:32.403Z,37.50
2023-03-01T04:14:05.526Z,36.20
2023-03-01T04:16:35.978Z,39.10
2023-03-01T04:19:04.642Z,39.40
2023-03-01T04:21:33.820Z,33.40
2023-03-01T04:24:04.207Z,33.00
2023-03-01T04:26:32.638Z,34.60
2023-03-01T04:29:01.206Z,34.70
2023-03-01T04:31:29.911Z,38.40
2023-03-01T04:33:58.589Z,32.10
2023-03-01T04:36:28.914Z,37.00
2023-03-01T04:38:58.219Z,38.50
2023-03-01T04:41:27.107Z,42.40
2023-03-01T04:43:55.691Z,39.40
2023-03-01T04:46:24.006Z,31.10
2023-03-01T04:48:56.154Z,32.90
2023-03-01T04:51:24.810Z,33.60
2023-03-01T04:53:52.907Z,37.40
2023-03-01T04:56:21.279Z,31.70
2023-03-01T04:58:49.860Z,37.20
2023-03-01T05:01:20.005Z,37.50
2023-03-01T05:03:49.789Z,39.10
2023-03-01T05:06:18.276Z,34.50
2023-03-01T05:08:46.677Z,37.40
2023-03-01T05:11:15.946Z,42.30
2023-03-01T05:13:44.530Z,35.80
2023-03-01T05:16:13.244Z,37.90
2023-03-01T05:18:42.625Z,41.20
2023-03-01T05:21:12.841Z,34.80
2023-03-01T05:23:44.351Z,32.50
2023-03-01T05:26:27.361Z,38.00
2023-03-01T05:29:00.419Z,35.50
2023-03-01T05:31:32.050Z,37.30
2023-03-01T05:34:00.398Z,38.40
2023-03-01T05:36:29.228Z,34.40
2023-03-01T05:38:59.031Z,35.60
2023-03-01T05:41:27.216Z,33.00
2023-03-01T05:43:55.707Z,37.00
2023-03-01T05:46:25.804Z,32.20
2023-03-01T05:48:54.438Z,39.10
2023-03-01T05:51:23.396Z,35.70
2023-03-01T05:53:52.185Z,32.00
2023-03-01T05:56:20.892Z,29.90
2023-03-01T05:58:50.882Z,31.30
2023-03-01T06:01:19.043Z,30.30
2023-03-01T06:03:48.135Z,34.70
2023-03-01T06:06:17.258Z,32.50
2023-03-01T06:08:45.952Z,33.70
2023-03-01T06:11:14.533Z,30.60
2023-03-01T06:13:45.940Z,32.70
2023-03-01T06:16:14.838Z,30.80
2023-03-01T06:18:43.671Z,29.80
2023-03-01T06:21:11.835Z,36.30
2023-03-01T06:23:40.874Z,32.80
2023-03-01T06:26:09.995Z,28.30
2023-03-01T06:28:41.562Z,26.90
2023-03-01T06:31:10.764Z,31.60
2023-03-01T06:33:38.964Z,32.90
2023-03-01T06:36:08.835Z,26.10
2023-03-01T06:38:37.128Z,30.50
2023-03-01T06:41:05.466Z,37.90
2023-03-01T06:43:33.597Z,28.80
2023-03-01T06:46:03.414Z,32.00
2023-03-01T06:48:31.650Z,34.60
2023-03-01T06:51:01.821Z,33.80
2023-03-01T06:53:30.176Z,30.00
2023-03-01T06:56:01.068Z,37.80
2023-03-01T06:58:29.795Z,38.20
2023-03-01T07:00:57.941Z,30.50
2023-03-01T07:03:26.231Z,30.10
2023-03-01T07:05:54.688Z,34.60
2023-03-01T07:08:23.789Z,36.30
2023-03-01T07:10:59.659Z,38.40
2023-03-01T07:13:29.538Z,42.50
2023-03-01T07:15:59.193Z,34.60
2023-03-01T07:18:27.325Z,33.50
2023-03-01T07:21:08.795Z,33.80
2023-03-01T07:23:37.129Z,31.80
2023-03-01T07:26:06.012Z,35.10
2023-03-01T07:28:39.917Z,35.60
2023-03-01T07:31:08.699Z,38.50
2023-03-01T07:33:38.373Z,34.60
2023-03-01T07:36:07.734Z,36.00
2023-03-01T07:38:37.788Z,35.10
2023-03-01T07:41:06.930Z,33.50
2023-03-01T07:43:37.633Z,36.80
2023-03-01T07:46:07.465Z,41.70
2023-03-01T07:48:37.132Z,43.90
2023-03-01T07:51:06.222Z,43.50
2023-03-01T07:53:37.512Z,40.10
2023-03-01T07:56:11.186Z,39.80
2023-03-01T07:58:41.598Z,37.00
2023-03-01T08:01:12.588Z,35.90
2023-03-01T08:03:40.965Z,36.50
2023-03-01T08:06:10.004Z,31.20
2023-03-01T08:08:39.198Z,41.30
2023-03-01T08:11:10.163Z,31.10
2023-03-01T08:13:58.566Z,34.60
2023-03-01T08:16:27.305Z,33.00
2023-03-01T08:18:57.942Z,36.10
2023-03-01T08:21:26.511Z,33.50
2023-03-01T08:23:54.869Z,31.30
2023-03-01T08:26:23.235Z,32.00
2023-03-01T08:28:51.546Z,32.20
2023-03-01T08:31:19.925Z,33.10
2023-03-01T08:33:56.103Z,34.60
2023-03-01T08:36:25.508Z,32.10
2023-03-01T08:38:54.025Z,40.40
2023-03-01T08:41:22.348Z,32.40
2023-03-01T08:43:50.817Z,33.70
2023-03-01T08:46:21.596Z,38.70
2023-03-01T08:48:50.463Z,32.70
2023-03-01T08:51:19.636Z,29.20
2023-03-01T08:53:47.651Z,30.10
2023-03-01T08:56:16.401Z,27.10
2023-03-01T08:58:46.488Z,31.00
2023-03-01T09:01:19.635Z,35.10
2023-03-01T09:03:47.864Z,32.70
2023-03-01T09:06:17.569Z,38.20
2023-03-01T09:08:56.356Z,31.40
2023-03-01T09:11:24.394Z,37.60
2023-03-01T09:13:56.876Z,38.30
2023-03-01T09:16:25.413Z,35.30
2023-03-01T09:18:54.911Z,30.90
2023-03-01T09:21:39.595Z,37.20
2023-03-01T09:24:14.668Z,36.90
2023-03-01T09:26:48.824Z,33.90
2023-03-01T09:29:18.926Z,39.00
2023-03-01T09:31:47.292Z,32.60
2023-03-01T09:34:20.392Z,31.30
2023-03-01T09:36:48.988Z,32.80
2023-03-01T09:39:18.913Z,32.40
2023-03-01T09:41:53.245Z,35.10
2023-03-01T09:44:31.045Z,35.20
2023-03-01T09:47:24.197Z,35.20
2023-03-01T09:50:19.670Z,33.70
2023-03-01T09:53:02.151Z,46.40
2023-03-01T09:55:40.833Z,35.20
2023-03-01T09:58:16.207Z,38.40
2023-03-01T10:00:44.589Z,36.80
2023-03-01T10:03:34.803Z,48.60
2023-03-01T10:06:33.996Z,61.00
2023-03-01T10:09:22.560Z,44.10
2023-03-01T10:11:53.750Z,53.30
2023-03-01T10:14:37.049Z,39.80
2023-03-01T10:17:20.408Z,42.00
2023-03-01T10:19:48.848Z,38.30
2023-03-01T10:22:24.550Z,45.20
2023-03-01T10:24:53.190Z,44.20
2023-03-01T10:27:35.336Z,45.10
2023-03-01T10:30:13.304Z,38.90
2023-03-01T10:32:41.703Z,37.70
2023-03-01T10:35:22.329Z,37.10
2023-03-01T10:38:10.858Z,48.00
2023-03-01T10:40:54.741Z,41.20
2023-03-01T10:43:22.856Z,40.90
2023-03-01T10:45:51.090Z,44.10
2023-03-01T10:48:29.822Z,85.70
2023-03-01T10:51:01.346Z,63.70
2023-03-01T10:53:41.921Z,44.50
2023-03-01T10:56:11.935Z,35.50
2023-03-01T10:59:00.597Z,42.00
2023-03-01T11:01:33.288Z,39.30
2023-03-01T11:04:14.749Z,35.50
2023-03-01T11:06:43.986Z,27.90
2023-03-01T11:09:23.610Z,32.20
2023-03-01T11:11:56.523Z,48.50
2023-03-01T11:14:27.906Z,47.20
2023-03-01T11:17:13.997Z,34.30
2023-03-01T11:19:48.849Z,30.90
2023-03-01T11:22:23.106Z,30.70
2023-03-01T11:25:08.484Z,28.80
2023-03-01T11:27:41.865Z,33.80
2023-03-01T11:30:27.276Z,36.70
2023-03-01T11:33:14.160Z,35.80
2023-03-01T11:35:44.472Z,35.70
2023-03-01T11:38:21.277Z,30.60
2023-03-01T11:41:09.583Z,38.30
2023-03-01T11:44:25.740Z,32.70
2023-03-01T11:47:03.585Z,35.10
2023-03-01T11:49:55.869Z,30.00
2023-03-01T11:52:39.539Z,32.60
2023-03-01T11:55:16.129Z,28.20
2023-03-01T11:57:50.069Z,30.80
2023-03-01T12:00:40.254Z,30.50
2023-03-01T12:03:20.852Z,30.10
2023-03-01T12:06:15.578Z,30.80
2023-03-01T12:08:54.414Z,33.50
2023-03-01T12:11:24.128Z,34.40
2023-03-01T12:14:10.524Z,30.00
2023-03-01T12:16:49.304Z,29.00
2023-03-01T12:19:36.768Z,32.40
2023-03-01T12:22:43.327Z,29.90
2023-03-01T12:25:20.036Z,26.10
2023-03-01T12:28:04.428Z,27.30
2023-03-01T12:31:13.168Z,29.50
2023-03-01T12:33:58.608Z,29.90
2023-03-01T12:36:45.256Z,31.00
2023-03-01T12:39:29.731Z,29.60
2023-03-01T12:42:17.324Z,28.70
2023-03-01T12:44:51.372Z,31.10
2023-03-01T12:47:41.773Z,29.40
2023-03-01T12:50:24.385Z,28.30
2023-03-01T12:52:54.996Z,35.60
2023-03-01T12:55:34.251Z,33.40
2023-03-01T12:58:13.061Z,26.80
2023-03-01T13:00:47.404Z,27.70
2023-03-01T13:03:37.094Z,25.60
2023-03-01T13:06:19.712Z,29.60
2023-03-01T13:09:01.504Z,25.60
2023-03-01T13:11:29.639Z,31.20
2023-03-01T13:14:34.236Z,30.70
2023-03-01T13:17:04.941Z,25.90
2023-03-01T13:19:33.558Z,26.40
2023-03-01T13:22:33.375Z,27.40
2023-03-01T13:25:14.702Z,30.50
2023-03-01T13:27:45.782Z,31.70
2023-03-01T13:30:34.663Z,31.00
2023-03-01T13:33:29.764Z,25.90
2023-03-01T13:35:58.888Z,28.30
2023-03-01T13:38:45.571Z,27.20
2023-03-01T13:41:19.168Z,26.10
2023-03-01T13:43:49.408Z,28.70
2023-03-01T13:46:20.910Z,31.80
2023-03-01T13:48:54.059Z,27.40
2023-03-01T13:51:27.342Z,27.70
2023-03-01T13:53:56.532Z,24.10
2023-03-01T13:56:29.635Z,28.50
2023-03-01T13:59:03.924Z,28.80
2023-03-01T14:01:37.069Z,29.70
2023-03-01T14:04:24.071Z,24.90
2023-03-01T14:06:52.228Z,28.60
2023-03-01T14:09:25.886Z,29.10
2023-03-01T14:11:54.130Z,29.00
2023-03-01T14:14:27.580Z,29.80
2023-03-01T14:17:15.270Z,27.30
2023-03-01T14:19:44.835Z,29.60
2023-03-01T14:22:35.544Z,33.30
2023-03-01T14:25:17.946Z,30.30
2023-03-01T14:27:46.931Z,32.30
2023-03-01T14:30:20.541Z,32.30
2023-03-01T14:32:55.672Z,33.50
2023-03-01T14:35:36.806Z,38.90
2023-03-01T14:38:05.260Z,54.50
2023-03-01T14:40:37.842Z,36.00
2023-03-01T14:43:11.734Z,49.70
2023-03-01T14:45:47.896Z,37.30
2023-03-01T14:48:17.413Z,29.00
2023-03-01T14:50:45.682Z,52.00
2023-03-01T14:53:19.560Z,36.90
2023-03-01T14:55:49.974Z,38.20
2023-03-01T14:58:22.009Z,38.80
2023-03-01T15:00:58.793Z,32.60
2023-03-01T15:03:42.148Z,41.80
2023-03-01T15:06:10.941Z,36.20
2023-03-01T15:08:43.002Z,38.70
2023-03-01T15:11:26.061Z,39.50
2023-03-01T15:13:55.982Z,37.90
2023-03-01T15:16:29.696Z,46.40
2023-03-01T15:18:59.942Z,41.10
2023-03-01T15:21:38.322Z,36.40
2023-03-01T15:24:20.794Z,41.10
2023-03-01T15:27:03.063Z,39.00
2023-03-01T15:29:34.490Z,44.40
2023-03-01T15:32:27.051Z,44.20
2023-03-01T15:34:55.768Z,29.40
2023-03-01T15:37:44.468Z,28.90
2023-03-01T15:40:34.507Z,28.10
2023-03-01T15:45:35.244Z,65.20
2023-03-01T15:48:15.638Z,38.50
2023-03-01T15:50:45.413Z,50.30
2023-03-01T15:53:15.603Z,39.30
2023-03-01T15:55:45.027Z,32.20
2023-03-01T15:58:15.645Z,34.30
2023-03-01T16:00:59.445Z,40.70
2023-03-01T16:03:29.603Z,34.00
2023-03-01T16:05:58.756Z,33.00
2023-03-01T16:08:27.277Z,31.10
2023-03-01T16:10:56.806Z,32.60
2023-03-01T16:13:28.307Z,31.90
2023-03-01T16:16:02.630Z,31.90
2023-03-01T16:18:31.452Z,46.90
2023-03-01T16:21:00.709Z,72.70
2023-03-01T16:23:28.909Z,71.20
2023-03-01T16:26:00.748Z,77.90
2023-03-01T16:28:30.666Z,83.40
2023-03-01T16:31:00.025Z,81.40
2023-03-01T16:33:34.129Z,69.90
2023-03-01T16:36:10.953Z,73.50
2023-03-01T16:38:39.831Z,81.20
2023-03-01T16:41:12.522Z,75.50
2023-03-01T16:43:41.768Z,69.60
2023-03-01T16:46:17.008Z,41.40
2023-03-01T16:48:45.616Z,46.70
2023-03-01T16:51:14.186Z,48.40
2023-03-01T16:53:47.734Z,46.80
2023-03-01T16:56:19.244Z,35.50
2023-03-01T16:58:47.934Z,31.00
2023-03-01T17:01:27.096Z,31.00
2023-03-01T17:03:57.685Z,31.60
2023-03-01T17:06:27.757Z,34.30
2023-03-01T17:08:56.083Z,28.30
2023-03-01T17:11:24.468Z,31.50
2023-03-01T17:13:56.734Z,26.10
2023-03-01T17:16:25.466Z,27.30
2023-03-01T17:18:53.823Z,38.90
2023-03-01T17:21:22.140Z,65.20
2023-03-01T17:23:50.688Z,55.80
2023-03-01T17:26:19.253Z,52.00
2023-03-01T17:28:52.018Z,54.30
2023-03-01T17:31:22.584Z,52.50
2023-03-01T17:33:52.848Z,44.70
2023-03-01T17:36:21.052Z,46.20
2023-03-01T17:38:50.913Z,41.50
2023-03-01T17:41:21.932Z,38.50
2023-03-01T17:43:51.617Z,40.00
2023-03-01T17:46:20.265Z,41.30
2023-03-01T17:48:49.988Z,41.40
2023-03-01T17:51:38.578Z,34.80
2023-03-01T17:54:07.274Z,48.60
2023-03-01T17:56:38.817Z,42.70
2023-03-01T17:59:07.286Z,40.70
2023-03-01T18:01:37.467Z,37.80
2023-03-01T18:04:05.595Z,36.80
2023-03-01T18:06:35.736Z,39.00
2023-03-01T18:09:04.629Z,36.40
2023-03-01T18:14:05.737Z,41.20
2023-03-01T18:16:34.591Z,38.70
2023-03-01T18:19:04.560Z,39.90
2023-03-01T18:21:34.228Z,70.40
2023-03-01T18:24:02.858Z,56.70
2023-03-01T18:26:31.883Z,54.70
2023-03-01T18:29:01.602Z,48.10
2023-03-01T18:31:33.576Z,43.20
2023-03-01T18:34:02.738Z,50.80
2023-03-01T18:36:33.634Z,46.80
2023-03-01T18:39:06.171Z,45.50
2023-03-01T18:41:34.858Z,45.40
2023-03-01T18:44:04.375Z,49.80
2023-03-01T18:46:34.775Z,51.30
2023-03-01T18:49:06.232Z,52.00
2023-03-01T18:51:36.122Z,62.10
2023-03-01T18:54:04.966Z,74.00
2023-03-01T18:56:35.010Z,41.50
2023-03-01T18:59:04.248Z,66.00
2023-03-01T19:01:36.393Z,78.60
2023-03-01T19:04:05.662Z,72.90
2023-03-01T19:06:35.492Z,30.90
2023-03-01T19:09:05.123Z,23.40
2023-03-01T19:11:36.294Z,24.70
2023-03-01T19:14:04.965Z,19.40
2023-03-01T19:16:36.105Z,30.70
2023-03-01T19:19:05.746Z,19.20
2023-03-01T19:21:34.363Z,19.50
2023-03-01T19:24:03.217Z,16.60
2023-03-01T19:26:32.086Z,17.30
2023-03-01T19:29:06.808Z,14.80
2023-03-01T19:31:35.611Z,12.60
2023-03-01T19:34:12.452Z,15.30
2023-03-01T19:36:43.931Z,14.30
2023-03-01T19:39:13.803Z,18.30
2023-03-01T19:41:43.096Z,17.40
2023-03-01T19:44:13.887Z,16.90
2023-03-01T19:46:42.166Z,20.90
2023-03-01T19:49:10.733Z,18.90
2023-03-01T19:51:39.737Z,21.70
2023-03-01T19:54:10.135Z,18.10
2023-03-01T19:56:39.045Z,21.00
2023-03-01T19:59:07.375Z,21.80
2023-03-01T20:01:38.051Z,21.30
2023-03-01T20:04:09.309Z,22.20
2023-03-01T20:06:39.291Z,23.10
2023-03-01T20:09:20.406Z,18.50
2023-03-01T20:11:52.353Z,20.10
2023-03-01T20:14:27.211Z,30.00
2023-03-01T20:16:57.306Z,60.20
2023-03-01T20:19:25.722Z,56.40
2023-03-01T20:21:54.174Z,49.70
2023-03-01T20:24:23.305Z,44.00
2023-03-01T20:26:51.648Z,40.70
2023-03-01T20:29:20.297Z,34.20
2023-03-01T20:31:48.907Z,38.20
2023-03-01T20:34:18.125Z,35.30
2023-03-01T20:36:46.149Z,32.20
2023-03-01T20:39:16.229Z,32.80
2023-03-01T20:41:46.330Z,31.30
2023-03-01T20:44:19.491Z,39.50
2023-03-01T20:46:48.563Z,31.90
2023-03-01T20:49:16.899Z,30.80
2023-03-01T20:51:45.385Z,28.40
2023-03-01T20:54:14.469Z,28.60
2023-03-01T20:56:43.468Z,20.60
2023-03-01T20:59:12.376Z,14.00
2023-03-01T21:01:42.272Z,13.20
2023-03-01T21:04:10.443Z,18.40
2023-03-01T21:06:40.094Z,17.40
2023-03-01T21:09:08.383Z,16.80
2023-03-01T21:11:41.257Z,12.80
2023-03-01T21:14:09.506Z,19.70
2023-03-01T21:16:37.591Z,15.50
2023-03-01T21:19:12.398Z,12.50
2023-03-01T21:21:41.277Z,10.40
2023-03-01T21:24:10.693Z,17.10
2023-03-01T21:26:39.581Z,14.70
2023-03-01T21:29:08.012Z,13.50
2023-03-01T21:31:38.942Z,10.80
2023-03-01T21:34:07.585Z,14.60
2023-03-01T21:36:38.873Z,13.20
2023-03-01T21:39:07.311Z,11.20
2023-03-01T21:41:37.041Z,13.00
2023-03-01T21:44:07.446Z,7.50
2023-03-01T21:46:37.446Z,14.30
2023-03-01T21:49:05.731Z,11.00
2023-03-01T21:51:34.032Z,9.70
2023-03-01T21:54:03.537Z,10.00
2023-03-01T21:56:35.276Z,8.50
2023-03-01T21:59:05.659Z,15.00
2023-03-01T22:01:34.300Z,9.40
2023-03-01T22:04:03.752Z,12.10
2023-03-01T22:06:40.990Z,11.00
2023-03-01T22:09:20.023Z,18.10
2023-03-01T22:11:51.272Z,21.90
2023-03-01T22:14:19.535Z,25.50
2023-03-01T22:16:48.197Z,31.10
2023-03-01T22:19:16.359Z,35.30
2023-03-01T22:21:46.040Z,31.90
2023-03-01T22:24:15.173Z,32.10
2023-03-01T22:26:44.542Z,29.70
2023-03-01T22:29:15.253Z,26.70
2023-03-01T22:31:44.511Z,23.10
2023-03-01T22:34:14.818Z,25.00
2023-03-01T22:36:43.568Z,23.10
2023-03-01T22:39:13.686Z,29.40
2023-03-01T22:41:44.404Z,30.50
2023-03-01T22:44:13.509Z,35.10
2023-03-01T22:46:45.894Z,28.40
2023-03-01T22:49:14.150Z,24.10
2023-03-01T22:51:43.060Z,24.60
2023-03-01T22:54:11.396Z,26.10
2023-03-01T22:56:39.816Z,34.70
2023-03-01T22:59:09.882Z,29.40
2023-03-01T23:01:38.762Z,29.00
2023-03-01T23:04:06.788Z,34.40
2023-03-01T23:06:35.745Z,34.70
2023-03-01T23:09:06.117Z,37.10
2023-03-01T23:14:03.505Z,36.00
2023-03-01T23:16:33.589Z,35.30
2023-03-01T23:19:01.912Z,32.30
2023-03-01T23:21:35.623Z,30.90
2023-03-01T23:24:05.323Z,30.60
2023-03-01T23:26:34.074Z,27.40
2023-03-01T23:29:03.191Z,24.00
2023-03-01T23:31:31.566Z,24.80
2023-03-01T23:34:00.377Z,31.20
2023-03-01T23:36:31.848Z,26.40
2023-03-01T23:39:05.824Z,27.20
2023-03-01T23:41:34.909Z,32.20
2023-03-01T23:44:03.393Z,23.10
2023-03-01T23:46:34.902Z,27.10
2023-03-01T23:49:04.777Z,22.80
2023-03-01T23:51:35.408Z,28.10
2023-03-01T23:54:05.653Z,40.70
2023-03-01T23:56:38.201Z,33.50
2023-03-01T23:59:09.268Z,29.00
